createdAt,value
2018-10-12T00:01:47.707Z,75.97
2018-10-12T00:04:16.366Z,75.68
2018-10-12T00:06:44.980Z,76.05
2018-10-12T00:09:13.615Z,75.90
2018-10-12T00:11:42.246Z,76.39
2018-10-12T00:14:10.847Z,76.07
2018-10-12T00:16:39.624Z,76.07
2018-10-12T00:19:08.241Z,76.21
2018-10-12T00:21:36.872Z,76.13
2018-10-12T00:24:05.523Z,76.56
2018-10-12T00:26:34.140Z,76.73
2018-10-12T00:29:02.795Z,76.60
2018-10-12T00:31:31.416Z,76.90
2018-10-12T00:34:00.045Z,77.33
2018-10-12T00:36:28.649Z,77.07
2018-10-12T00:38:57.267Z,77.42
2018-10-12T00:41:25.907Z,77.14
2018-10-12T00:43:54.572Z,77.27
2018-10-12T00:46:23.219Z,77.29
2018-10-12T00:48:51.843Z,77.52
2018-10-12T00:51:20.531Z,77.77
2018-10-12T00:53:49.200Z,77.61
2018-10-12T00:56:17.837Z,77.81
2018-10-12T00:58:46.468Z,77.87
2018-10-12T01:01:16.896Z,77.89
2018-10-12T01:03:45.530Z,77.51
2018-10-12T01:06:14.164Z,77.50
2018-10-12T01:08:42.803Z,77.58
2018-10-12T01:11:11.947Z,77.45
2018-10-12T01:13:40.671Z,77.78
2018-10-12T01:16:09.343Z,77.92
2018-10-12T01:18:38.112Z,77.46
2018-10-12T01:21:06.763Z,77.81
2018-10-12T01:23:35.432Z,78.55
2018-10-12T01:26:04.089Z,78.64
2018-10-12T01:28:32.836Z,78.43
2018-10-12T01:31:01.767Z,78.42
2018-10-12T01:33:30.366Z,78.23
2018-10-12T01:35:58.999Z,78.81
2018-10-12T01:38:27.638Z,78.35
2018-10-12T01:40:56.304Z,78.54
2018-10-12T01:43:25.000Z,78.37
2018-10-12T01:45:53.738Z,78.73
2018-10-12T01:48:22.370Z,78.96
2018-10-12T01:50:51.009Z,78.69
2018-10-12T01:53:19.615Z,78.36
2018-10-12T01:55:48.307Z,78.32
2018-10-12T01:58:16.932Z,78.62
2018-10-12T02:00:45.710Z,78.33
2018-10-12T02:03:14.799Z,78.79
2018-10-12T02:05:43.443Z,78.62
2018-10-12T02:08:12.070Z,78.42
2018-10-12T02:10:40.760Z,78.64
2018-10-12T02:13:09.395Z,78.60
2018-10-12T02:15:38.026Z,78.61
2018-10-12T02:18:06.698Z,78.61
2018-10-12T02:20:35.320Z,78.76
2018-10-12T02:23:04.001Z,79.06
2018-10-12T02:25:34.266Z,79.41
2018-10-12T02:28:02.867Z,79.63
2018-10-12T02:30:31.499Z,79.68
2018-10-12T02:33:00.165Z,80.03
2018-10-12T02:35:28.806Z,80.08
2018-10-12T02:37:57.465Z,80.41
2018-10-12T02:40:26.092Z,80.30
2018-10-12T02:42:54.755Z,80.42
2018-10-12T02:45:23.367Z,80.29
2018-10-12T02:47:51.980Z,80.24
2018-10-12T02:50:20.601Z,80.20
2018-10-12T02:52:49.211Z,80.36
2018-10-12T02:55:17.868Z,80.56
2018-10-12T02:57:46.528Z,80.61
2018-10-12T03:00:15.172Z,80.58
2018-10-12T03:02:43.760Z,80.80
2018-10-12T03:05:12.570Z,80.27
2018-10-12T03:07:41.234Z,80.25
2018-10-12T03:10:09.863Z,80.43
2018-10-12T03:12:38.521Z,79.93
2018-10-12T03:15:07.215Z,80.12
2018-10-12T03:17:35.840Z,80.22
2018-10-12T03:20:04.481Z,81.60
2018-10-12T03:22:33.435Z,81.75
2018-10-12T03:25:02.059Z,81.48
2018-10-12T03:27:30.999Z,81.38
2018-10-12T03:29:59.651Z,81.44
2018-10-12T03:32:28.307Z,81.29
2018-10-12T03:34:56.964Z,81.60
2018-10-12T03:37:25.640Z,81.44
2018-10-12T03:39:54.211Z,81.29
2018-10-12T03:42:22.871Z,81.23
2018-10-12T03:44:51.476Z,81.01
2018-10-12T03:47:20.087Z,80.87
2018-10-12T03:49:48.707Z,80.50
2018-10-12T03:52:17.359Z,80.67
2018-10-12T03:54:46.091Z,80.27
2018-10-12T03:57:14.721Z,80.51
2018-10-12T03:59:43.345Z,80.35
2018-10-12T04:02:11.940Z,80.26
2018-10-12T04:04:40.577Z,80.33
2018-10-12T04:07:09.211Z,80.22
2018-10-12T04:09:37.863Z,80.09
2018-10-12T04:12:06.501Z,80.16
2018-10-12T04:14:35.161Z,79.99
2018-10-12T04:17:03.763Z,79.65
2018-10-12T04:19:32.388Z,80.12
2018-10-12T04:22:01.016Z,80.48
2018-10-12T04:24:29.673Z,80.47
2018-10-12T04:26:58.286Z,80.38
2018-10-12T04:29:26.918Z,80.51
2018-10-12T04:31:55.540Z,80.43
2018-10-12T04:34:24.200Z,80.21
2018-10-12T04:36:52.839Z,80.25
2018-10-12T04:39:39.415Z,80.57
2018-10-12T04:42:08.032Z,80.80
2018-10-12T04:44:36.718Z,80.71
2018-10-12T04:47:05.730Z,80.78
2018-10-12T04:49:34.325Z,80.32
2018-10-12T04:52:02.944Z,80.82
2018-10-12T04:54:31.555Z,80.95
2018-10-12T04:57:00.207Z,80.89
2018-10-12T04:59:29.236Z,81.17
2018-10-12T05:01:57.923Z,80.93
2018-10-12T05:04:26.612Z,81.28
2018-10-12T05:06:55.320Z,81.35
2018-10-12T05:09:24.135Z,81.78
2018-10-12T05:11:52.807Z,81.95
2018-10-12T05:14:21.543Z,82.28
2018-10-12T05:16:50.312Z,82.44
2018-10-12T05:19:18.968Z,82.33
2018-10-12T05:21:47.576Z,81.30
2018-10-12T05:24:16.274Z,81.75
2018-10-12T05:26:44.994Z,81.97
2018-10-12T05:29:13.590Z,82.03
2018-10-12T05:31:42.263Z,82.02
2018-10-12T05:34:10.911Z,82.16
2018-10-12T05:36:39.528Z,82.18
2018-10-12T05:39:09.642Z,82.12
2018-10-12T05:41:38.266Z,81.77
2018-10-12T05:44:06.936Z,81.62
2018-10-12T05:46:36.649Z,81.57
2018-10-12T05:49:16.684Z,81.31
2018-10-12T05:51:45.313Z,81.99
2018-10-12T05:54:14.529Z,82.53
2018-10-12T05:56:43.404Z,81.89
2018-10-12T05:59:12.067Z,84.21
2018-10-12T06:01:41.589Z,83.60
2018-10-12T06:04:10.238Z,81.34
2018-10-12T06:06:38.884Z,81.00
2018-10-12T06:09:08.295Z,81.00
2018-10-12T06:11:36.924Z,81.25
2018-10-12T06:14:05.619Z,81.19
2018-10-12T06:16:34.225Z,80.97
2018-10-12T06:19:02.911Z,80.78
2018-10-12T06:21:32.688Z,80.90
2018-10-12T06:24:01.342Z,80.70
2018-10-12T06:26:29.990Z,81.12
2018-10-12T06:28:58.643Z,81.04
2018-10-12T06:31:27.301Z,80.91
2018-10-12T06:33:56.111Z,80.91
2018-10-12T06:36:24.939Z,80.53
2018-10-12T06:38:53.639Z,80.20
2018-10-12T06:41:22.446Z,80.96
2018-10-12T06:43:51.086Z,80.93
2018-10-12T06:46:19.804Z,80.38
2018-10-12T06:48:48.634Z,80.30
2018-10-12T06:51:17.395Z,80.15
2018-10-12T06:53:46.314Z,80.08
2018-10-12T06:56:14.992Z,79.64
2018-10-12T06:58:44.919Z,79.35
2018-10-12T07:01:13.763Z,78.14
2018-10-12T07:03:42.956Z,76.55
2018-10-12T07:06:12.866Z,74.66
2018-10-12T07:08:41.674Z,72.67
2018-10-12T07:11:10.640Z,73.11
2018-10-12T07:13:39.306Z,73.01
2018-10-12T07:16:08.209Z,73.86
2018-10-12T07:18:36.916Z,74.05
2018-10-12T07:21:05.551Z,74.62
2018-10-12T07:23:34.237Z,74.63
2018-10-12T07:26:02.986Z,74.96
2018-10-12T07:28:31.607Z,73.91
2018-10-12T07:31:00.228Z,74.27
2018-10-12T07:33:28.856Z,74.12
2018-10-12T07:35:57.479Z,74.44
2018-10-12T07:38:26.349Z,74.19
2018-10-12T07:40:55.043Z,74.17
2018-10-12T07:43:23.700Z,74.26
2018-10-12T07:45:52.352Z,74.04
2018-10-12T07:48:20.970Z,74.14
2018-10-12T07:50:50.029Z,73.56
2018-10-12T07:53:18.811Z,73.26
2018-10-12T07:55:47.307Z,72.38
2018-10-12T07:58:15.932Z,73.08
2018-10-12T08:00:44.642Z,73.20
2018-10-12T08:03:13.263Z,72.66
2018-10-12T08:05:41.979Z,71.60
2018-10-12T08:08:10.599Z,71.74
2018-10-12T08:10:39.283Z,71.11
2018-10-12T08:13:07.919Z,70.60
2018-10-12T08:15:36.713Z,69.25
2018-10-12T08:18:05.381Z,68.90
2018-10-12T08:20:34.285Z,68.62
2018-10-12T08:23:02.818Z,68.36
2018-10-12T08:25:31.476Z,67.60
2018-10-12T08:28:00.172Z,67.09
2018-10-12T08:30:28.890Z,66.47
2018-10-12T08:32:57.583Z,66.54
2018-10-12T08:35:26.200Z,64.99
2018-10-12T08:37:54.896Z,65.19
2018-10-12T08:40:23.559Z,64.10
2018-10-12T08:42:52.345Z,62.98
2018-10-12T08:45:20.975Z,61.55
2018-10-12T08:47:49.596Z,60.79
2018-10-12T08:50:18.259Z,58.46
2018-10-12T08:52:46.932Z,56.77
2018-10-12T08:55:16.038Z,54.91
2018-10-12T08:57:44.954Z,52.61
2018-10-12T09:00:14.128Z,52.05
2018-10-12T09:02:42.793Z,51.09
2018-10-12T09:05:11.416Z,50.10
2018-10-12T09:07:40.106Z,49.06
2018-10-12T09:10:09.127Z,48.10
2018-10-12T09:12:38.334Z,48.48
2018-10-12T09:15:07.180Z,47.59
2018-10-12T09:17:36.161Z,47.23
2018-10-12T09:20:05.053Z,47.16
2018-10-12T09:22:33.751Z,45.91
2018-10-12T09:25:02.526Z,46.32
2018-10-12T09:27:31.204Z,45.07
2018-10-12T09:29:59.810Z,44.86
2018-10-12T09:32:28.523Z,44.21
2018-10-12T09:34:57.124Z,43.83
2018-10-12T09:37:26.555Z,43.99
2018-10-12T09:39:55.384Z,43.16
2018-10-12T09:42:24.319Z,42.31
2018-10-12T09:44:53.422Z,42.05
2018-10-12T09:47:22.207Z,41.25
2018-10-12T09:49:50.842Z,40.70
2018-10-12T09:52:19.529Z,39.32
2018-10-12T09:54:48.163Z,38.81
2018-10-12T09:57:22.231Z,38.34
2018-10-12T09:59:50.894Z,38.62
2018-10-12T10:02:23.437Z,37.98
2018-10-12T10:04:52.051Z,37.06
2018-10-12T10:07:20.701Z,37.19
2018-10-12T10:09:49.335Z,37.22
2018-10-12T10:12:18.015Z,36.96
2018-10-12T10:14:46.680Z,37.36
2018-10-12T10:17:15.306Z,37.21
2018-10-12T10:19:43.994Z,36.67
2018-10-12T10:22:21.239Z,36.58
2018-10-12T10:24:50.447Z,36.92
2018-10-12T10:27:19.065Z,37.48
2018-10-12T10:29:47.747Z,37.36
2018-10-12T10:32:16.498Z,36.50
2018-10-12T10:34:45.124Z,35.59
2018-10-12T10:37:13.783Z,34.99
2018-10-12T10:39:42.510Z,34.88
2018-10-12T10:42:11.516Z,35.87
2018-10-12T10:44:40.148Z,36.32
2018-10-12T10:47:09.096Z,36.29
2018-10-12T10:49:37.842Z,36.48
2018-10-12T10:52:06.611Z,35.84
2018-10-12T10:54:35.269Z,35.00
2018-10-12T10:57:06.039Z,35.36
2018-10-12T10:59:35.863Z,35.43
2018-10-12T11:02:04.627Z,35.06
2018-10-12T11:04:33.835Z,35.10
2018-10-12T11:07:03.219Z,36.14
2018-10-12T11:09:31.933Z,35.45
2018-10-12T11:12:00.623Z,35.41
2018-10-12T11:14:29.327Z,36.18
2018-10-12T11:16:58.019Z,35.20
2018-10-12T11:19:26.662Z,35.20
2018-10-12T11:21:55.871Z,35.68
2018-10-12T11:24:24.668Z,35.61
2018-10-12T11:26:53.266Z,35.17
2018-10-12T11:29:22.491Z,36.10
2018-10-12T11:31:51.147Z,36.80
2018-10-12T11:34:19.869Z,35.77
2018-10-12T11:36:48.534Z,34.26
2018-10-12T11:39:17.267Z,34.65
2018-10-12T11:41:46.131Z,35.07
2018-10-12T11:44:14.879Z,35.98
2018-10-12T11:46:43.544Z,35.62
2018-10-12T11:49:12.235Z,34.68
2018-10-12T11:51:40.991Z,35.39
2018-10-12T11:54:09.628Z,34.68
2018-10-12T11:56:39.138Z,34.92
2018-10-12T11:59:07.977Z,34.77
2018-10-12T12:01:36.765Z,35.74
2018-10-12T12:04:05.716Z,35.62
2018-10-12T12:06:34.395Z,34.65
2018-10-12T12:09:03.157Z,35.03
2018-10-12T12:11:32.002Z,35.67
2018-10-12T12:14:00.763Z,36.51
2018-10-12T12:16:29.429Z,36.43
2018-10-12T12:18:58.188Z,36.97
2018-10-12T12:21:26.921Z,36.87
2018-10-12T12:23:55.689Z,35.37
2018-10-12T12:26:24.299Z,36.51
2018-10-12T12:28:52.980Z,36.06
2018-10-12T12:31:21.637Z,36.61
2018-10-12T12:33:50.289Z,37.11
2018-10-12T12:36:18.952Z,37.22
2018-10-12T12:38:47.603Z,38.58
2018-10-12T12:41:16.239Z,38.78
2018-10-12T12:43:45.819Z,38.25
2018-10-12T12:46:15.354Z,39.06
2018-10-12T12:48:44.447Z,40.02
2018-10-12T12:51:13.122Z,40.81
2018-10-12T12:53:42.365Z,41.12
2018-10-12T12:56:11.535Z,40.72
2018-10-12T12:58:40.191Z,41.49
2018-10-12T13:01:09.109Z,42.25
2018-10-12T13:03:37.753Z,42.81
2018-10-12T13:06:06.454Z,43.30
2018-10-12T13:08:35.070Z,43.63
2018-10-12T13:11:03.728Z,43.13
2018-10-12T13:13:32.375Z,43.08
2018-10-12T13:16:01.052Z,44.17
2018-10-12T13:18:30.069Z,44.03
2018-10-12T13:20:58.783Z,44.50
2018-10-12T13:23:27.615Z,43.88
2018-10-12T13:25:56.347Z,43.53
2018-10-12T13:28:24.835Z,43.14
2018-10-12T13:30:53.579Z,42.95
2018-10-12T13:33:22.297Z,42.83
2018-10-12T13:35:50.925Z,41.91
2018-10-12T13:38:19.577Z,41.79
2018-10-12T13:40:48.260Z,41.47
2018-10-12T13:43:16.902Z,41.64
2018-10-12T13:45:45.520Z,41.99
2018-10-12T13:48:14.198Z,42.42
2018-10-12T13:50:42.810Z,43.03
2018-10-12T13:53:11.479Z,43.59
2018-10-12T13:55:40.127Z,44.43
2018-10-12T13:58:08.774Z,43.92
2018-10-12T14:00:37.440Z,44.68
2018-10-12T14:03:06.087Z,44.94
2018-10-12T14:05:34.709Z,45.28
2018-10-12T14:08:03.334Z,45.76
2018-10-12T14:10:31.975Z,46.59
2018-10-12T14:13:00.640Z,47.03
2018-10-12T14:15:29.256Z,47.20
2018-10-12T14:17:57.941Z,47.75
2018-10-12T14:20:26.612Z,48.41
2018-10-12T14:22:55.268Z,48.33
2018-10-12T14:25:23.983Z,48.73
2018-10-12T14:27:52.804Z,49.02
2018-10-12T14:30:21.415Z,48.84
2018-10-12T14:32:50.096Z,49.33
2018-10-12T14:35:19.975Z,49.23
2018-10-12T14:37:48.653Z,49.55
2018-10-12T14:40:17.491Z,49.81
2018-10-12T14:42:46.210Z,49.93
2018-10-12T14:45:15.046Z,50.16
2018-10-12T14:47:43.718Z,50.50
2018-10-12T14:50:12.570Z,50.55
2018-10-12T14:52:41.230Z,50.63
2018-10-12T14:55:10.001Z,50.50
2018-10-12T14:57:38.707Z,50.74
2018-10-12T15:00:08.868Z,50.73
2018-10-12T15:02:38.043Z,50.54
2018-10-12T15:05:07.105Z,51.27
2018-10-12T15:07:35.819Z,51.24
2018-10-12T15:10:04.958Z,51.70
2018-10-12T15:12:33.922Z,51.80
2018-10-12T15:15:25.008Z,52.03
2018-10-12T15:17:54.617Z,52.32
2018-10-12T15:20:23.645Z,52.80
2018-10-12T15:22:52.290Z,53.13
2018-10-12T15:25:21.767Z,52.98
2018-10-12T15:27:50.893Z,52.93
2018-10-12T15:30:19.903Z,52.94
2018-10-12T15:32:48.574Z,53.12
2018-10-12T15:35:17.199Z,53.40
2018-10-12T15:37:46.092Z,53.80
2018-10-12T15:40:14.600Z,54.10
2018-10-12T15:42:43.346Z,54.63
2018-10-12T15:45:11.937Z,55.11
2018-10-12T15:47:40.612Z,55.88
2018-10-12T15:50:09.274Z,55.91
2018-10-12T15:52:37.919Z,56.29
2018-10-12T15:55:06.717Z,56.35
2018-10-12T15:57:35.388Z,56.42
2018-10-12T16:00:04.133Z,56.59
2018-10-12T16:02:32.763Z,57.11
2018-10-12T16:05:01.714Z,58.05
2018-10-12T16:07:30.352Z,58.06
2018-10-12T16:09:59.006Z,59.10
2018-10-12T16:12:27.943Z,59.97
2018-10-12T16:14:56.572Z,60.16
2018-10-12T16:17:26.773Z,60.47
2018-10-12T16:19:55.437Z,60.29
2018-10-12T16:22:24.154Z,60.80
2018-10-12T16:25:04.158Z,61.01
2018-10-12T16:27:33.645Z,61.47
2018-10-12T16:30:02.286Z,62.33
2018-10-12T16:32:30.947Z,63.16
2018-10-12T16:34:59.723Z,64.61
2018-10-12T16:37:28.367Z,65.99
2018-10-12T16:39:57.021Z,66.79
2018-10-12T16:42:25.688Z,65.93
2018-10-12T16:44:54.384Z,65.22
2018-10-12T16:47:23.006Z,65.01
2018-10-12T16:49:51.870Z,64.93
2018-10-12T16:52:20.545Z,64.60
2018-10-12T16:54:49.295Z,64.42
2018-10-12T16:57:22.444Z,64.69
2018-10-12T16:59:51.291Z,65.04
2018-10-12T17:02:19.994Z,65.63
2018-10-12T17:04:48.852Z,66.06
2018-10-12T17:07:17.373Z,66.21
2018-10-12T17:09:46.106Z,66.61
2018-10-12T17:12:14.969Z,66.24
2018-10-12T17:14:43.615Z,65.88
2018-10-12T17:17:12.272Z,65.66
2018-10-12T17:19:40.903Z,65.98
2018-10-12T17:22:09.690Z,65.83
2018-10-12T17:24:38.338Z,66.06
2018-10-12T17:27:07.381Z,69.14
2018-10-12T17:29:36.195Z,68.63
2018-10-12T17:32:04.874Z,69.38
2018-10-12T17:34:33.899Z,69.11
2018-10-12T17:37:03.478Z,69.98
2018-10-12T17:39:33.211Z,69.37
2018-10-12T17:42:13.404Z,70.35
2018-10-12T17:44:42.124Z,71.47
2018-10-12T17:47:10.742Z,71.56
2018-10-12T17:49:39.501Z,71.44
2018-10-12T17:52:08.656Z,71.98
2018-10-12T17:54:37.459Z,72.59
2018-10-12T17:57:06.456Z,72.82
2018-10-12T17:59:35.269Z,72.62
2018-10-12T18:02:04.227Z,73.01
2018-10-12T18:04:33.359Z,73.30
2018-10-12T18:07:02.486Z,73.48
2018-10-12T18:09:31.115Z,73.84
2018-10-12T18:11:59.822Z,74.04
2018-10-12T18:14:28.636Z,73.56
2018-10-12T18:16:57.271Z,73.69
2018-10-12T18:19:25.897Z,73.77
2018-10-12T18:21:54.605Z,73.51
2018-10-12T18:24:23.243Z,73.67
2018-10-12T18:26:51.924Z,73.87
2018-10-12T18:29:20.596Z,74.25
2018-10-12T18:31:49.571Z,74.14
2018-10-12T18:34:18.232Z,74.16
2018-10-12T18:36:47.160Z,73.75
2018-10-12T18:39:16.720Z,74.39
2018-10-12T18:41:45.632Z,74.30
2018-10-12T18:44:14.298Z,74.66
2018-10-12T18:46:43.130Z,75.10
2018-10-12T18:49:11.867Z,75.01
2018-10-12T18:51:40.527Z,75.39
2018-10-12T18:54:09.141Z,75.45
2018-10-12T18:56:37.797Z,75.86
2018-10-12T18:59:06.460Z,75.41
2018-10-12T19:01:35.446Z,75.75
2018-10-12T19:04:04.368Z,75.76
2018-10-12T19:06:33.050Z,75.68
2018-10-12T19:09:01.962Z,75.47
2018-10-12T19:11:30.949Z,74.55
2018-10-12T19:13:59.828Z,75.36
2018-10-12T19:16:28.840Z,75.36
2018-10-12T19:18:57.795Z,75.29
2018-10-12T19:21:26.687Z,75.10
2018-10-12T19:23:55.720Z,75.12
2018-10-12T19:26:25.738Z,75.53
2018-10-12T19:28:54.465Z,75.36
2018-10-12T19:31:23.209Z,75.42
2018-10-12T19:33:51.779Z,75.33
2018-10-12T19:36:20.435Z,75.40
2018-10-12T19:38:49.143Z,75.49
2018-10-12T19:41:17.847Z,75.24
2018-10-12T19:43:46.506Z,75.16
2018-10-12T19:46:15.161Z,75.04
2018-10-12T19:48:43.857Z,75.99
2018-10-12T19:51:12.571Z,75.64
2018-10-12T19:53:41.206Z,75.72
2018-10-12T19:56:10.478Z,75.80
2018-10-12T19:58:39.615Z,75.84
2018-10-12T20:01:08.552Z,75.39
2018-10-12T20:03:40.940Z,76.06
2018-10-12T20:06:09.830Z,75.53
2018-10-12T20:08:39.796Z,75.90
2018-10-12T20:11:08.519Z,76.14
2018-10-12T20:13:38.453Z,75.66
2018-10-12T20:16:07.453Z,76.18
2018-10-12T20:18:36.215Z,76.49
2018-10-12T20:21:05.011Z,76.26
2018-10-12T20:23:33.707Z,76.74
2018-10-12T20:26:02.483Z,76.28
2018-10-12T20:28:31.529Z,76.07
2018-10-12T20:31:00.427Z,76.07
2018-10-12T20:33:29.585Z,75.63
2018-10-12T20:35:58.427Z,76.78
2018-10-12T20:38:28.947Z,77.54
2018-10-12T20:40:57.885Z,76.10
2018-10-12T20:43:26.611Z,75.58
2018-10-12T20:45:55.884Z,74.74
2018-10-12T20:48:24.872Z,75.25
2018-10-12T20:50:53.630Z,75.48
2018-10-12T20:53:22.296Z,74.82
2018-10-12T20:55:50.995Z,74.94
2018-10-12T20:58:21.345Z,74.65
2018-10-12T21:00:51.831Z,75.23
2018-10-12T21:03:20.622Z,74.73
2018-10-12T21:05:49.265Z,75.80
2018-10-12T21:08:18.222Z,76.05
2018-10-12T21:10:47.175Z,75.77
2018-10-12T21:13:15.877Z,75.91
2018-10-12T21:15:44.680Z,75.84
2018-10-12T21:18:14.120Z,75.81
2018-10-12T21:20:43.136Z,76.43
2018-10-12T21:23:12.237Z,76.00
2018-10-12T21:25:41.258Z,76.36
2018-10-12T21:28:09.985Z,76.16
2018-10-12T21:30:38.646Z,75.87
2018-10-12T21:33:07.797Z,76.36
2018-10-12T21:35:37.131Z,75.28
2018-10-12T21:38:05.839Z,75.79
2018-10-12T21:40:34.496Z,75.82
2018-10-12T21:43:03.159Z,75.66
2018-10-12T21:45:31.938Z,75.54
2018-10-12T21:48:00.651Z,75.94
2018-10-12T21:50:29.337Z,75.71
2018-10-12T21:52:58.266Z,75.23
2018-10-12T21:55:26.988Z,75.96
2018-10-12T21:57:55.660Z,75.83
2018-10-12T22:00:24.555Z,75.52
2018-10-12T22:02:53.392Z,75.74
2018-10-12T22:05:22.078Z,75.42
2018-10-12T22:07:50.744Z,75.99
2018-10-12T22:10:19.498Z,76.45
2018-10-12T22:12:48.257Z,76.95
2018-10-12T22:15:16.915Z,77.12
2018-10-12T22:17:45.710Z,77.06
2018-10-12T22:20:14.847Z,76.67
2018-10-12T22:22:44.287Z,76.39
2018-10-12T22:25:13.799Z,77.28
2018-10-12T22:27:42.451Z,77.52
2018-10-12T22:30:11.175Z,77.29
2018-10-12T22:32:40.389Z,77.38
2018-10-12T22:35:09.050Z,77.84
2018-10-12T22:37:37.736Z,77.38
2018-10-12T22:40:06.491Z,77.63
2018-10-12T22:42:35.168Z,76.84
2018-10-12T22:45:03.846Z,77.96
2018-10-12T22:47:32.665Z,77.30
2018-10-12T22:50:01.306Z,77.11
2018-10-12T22:52:29.915Z,77.26
2018-10-12T22:54:58.559Z,76.90
2018-10-12T22:57:27.222Z,76.56
2018-10-12T22:59:56.016Z,76.03
2018-10-12T23:02:24.652Z,76.68
2018-10-12T23:04:53.319Z,76.65
2018-10-12T23:07:21.974Z,77.12
2018-10-12T23:09:50.620Z,76.59
2018-10-12T23:12:19.298Z,76.56
2018-10-12T23:14:47.996Z,76.94
2018-10-12T23:17:16.671Z,76.94
2018-10-12T23:19:45.536Z,77.44
2018-10-12T23:22:14.266Z,77.41
2018-10-12T23:24:42.917Z,77.29
2018-10-12T23:27:11.696Z,77.00
2018-10-12T23:29:40.340Z,77.75
2018-10-12T23:32:10.035Z,77.65
2018-10-12T23:34:38.681Z,78.12
2018-10-12T23:37:07.336Z,78.03
2018-10-12T23:39:35.992Z,78.32
2018-10-12T23:42:04.594Z,78.60
2018-10-12T23:44:33.264Z,78.71
2018-10-12T23:47:01.929Z,78.84
2018-10-12T23:49:30.588Z,78.90
2018-10-12T23:51:59.279Z,78.81
2018-10-12T23:54:28.067Z,78.99
2018-10-12T23:56:56.694Z,79.33
2018-10-12T23:59:25.328Z,78.86
